»·PEaware :: SWA584 KRNO-KSLC

SWA584 :: KRNO-KSLC

FLIGHT INFORMATION

Flight Status: Arrived
Operator:
Southwest Airlines
More flights by this operator :: More flights under this callsign
Pilot: Anonymous 17611 (17611)
Aircraft: BOEING 737-800
(B738)
More flights by this aircraft type
Origin: KRNO Reno/Tahoe Intl
United States
Destination: KSLC Salt Lake City Intl
United States
More flights between these airports :: More routes between these airports
Route: +ZEFFR6 BLKJK LLC BAM J154 BVL WAATS5
File this flight plan on PilotEdge
Remarks:
Altitude:
(Current/Filed)
34,000ft
Speed:
(Current/Filed)
480kts
Departed: 09-Jan-18 05:40 PM
Arrived: 09-Jan-18 06:46 PM
Distance/Time
Traveled:
365nm/1:05
Distance/Time
To Go:
Arrived

Flight Plot

Page will automatically refresh every two minutes.

Flight plan parsing failed; only flown route is shown


Map Options




Map Legend


Flown Route
Filed Route
Departure Airport
Arrival Airport
Navaid (VOR, NDB)
Fix

Horizontal Profiles

Position Reports

Time Latitude Longitude Heading Altitude Ground
Speed
09-Jan-18 17:27 39.504417 -119.773744 357 4414ft 0kts
09-Jan-18 17:28 39.504417 -119.773744 357 4414ft 0kts
09-Jan-18 17:29 39.504417 -119.773744 357 4414ft 0kts
09-Jan-18 17:30 39.504417 -119.773744 357 4414ft 0kts
09-Jan-18 17:31 39.504417 -119.773744 357 4414ft 0kts
09-Jan-18 17:32 39.504417 -119.773744 357 4414ft 0kts
09-Jan-18 17:33 39.504417 -119.773744 357 4414ft 0kts
09-Jan-18 17:34 39.504417 -119.773744 357 4414ft 0kts
09-Jan-18 17:35 39.504417 -119.773744 357 4414ft 0kts
09-Jan-18 17:36 39.504417 -119.773744 357 4414ft 0kts
09-Jan-18 17:37 39.504417 -119.773744 357 4414ft 0kts
09-Jan-18 17:38 39.504080 -119.773726 357 4414ft 2kts
09-Jan-18 17:39 39.503691 -119.774065 92 4414ft 1kts
09-Jan-18 17:40 39.503694 -119.774138 89 4414ft 0kts
09-Jan-18 17:41 39.503696 -119.774048 87 4414ft 2kts
09-Jan-18 17:42 39.504491 -119.771496 0 4410ft 13kts
09-Jan-18 17:43 39.509339 -119.771489 359 4414ft 21kts
09-Jan-18 17:44 39.513735 -119.770618 88 4418ft 0kts
09-Jan-18 17:45 39.513754 -119.769568 88 4418ft 8kts
09-Jan-18 17:46 39.499140 -119.769244 180 4408ft 154kts
09-Jan-18 17:47 39.450140 -119.767206 179 6618ft 190kts
09-Jan-18 17:48 39.386786 -119.769057 183 8465ft 271kts
09-Jan-18 17:49 39.312868 -119.747254 139 11616ft 308kts
09-Jan-18 17:50 39.285854 -119.640717 66 13835ft 357kts
09-Jan-18 17:51 39.341082 -119.532494 51 16716ft 371kts
09-Jan-18 17:52 39.413558 -119.437029 37 19531ft 379kts
09-Jan-18 17:53 39.490874 -119.344276 37 22163ft 392kts
09-Jan-18 17:54 39.570078 -119.248797 37 24568ft 403kts
09-Jan-18 17:55 39.652838 -119.148437 36 27028ft 408kts
09-Jan-18 17:56 39.734066 -119.050022 35 29675ft 397kts
09-Jan-18 17:57 39.814921 -118.952245 36 31430ft 402kts
09-Jan-18 17:58 39.896839 -118.853193 38 33135ft 403kts
09-Jan-18 17:59 39.978111 -118.755010 39 34751ft 399kts
09-Jan-18 18:00 40.062720 -118.652971 40 34773ft 430kts
09-Jan-18 18:01 40.139801 -118.529793 68 34787ft 468kts
09-Jan-18 18:02 40.181431 -118.365304 69 34786ft 483kts
09-Jan-18 18:03 40.224278 -118.202700 69 34787ft 481kts
09-Jan-18 18:04 40.267941 -118.037647 69 34783ft 482kts
09-Jan-18 18:05 40.311798 -117.872717 69 34772ft 482kts
09-Jan-18 18:06 40.355838 -117.707942 69 34776ft 481kts
09-Jan-18 18:07 40.400175 -117.542971 68 34783ft 482kts
09-Jan-18 18:08 40.444813 -117.377663 68 34775ft 481kts
09-Jan-18 18:09 40.489101 -117.214698 68 34781ft 482kts
09-Jan-18 18:10 40.534302 -117.049199 70 34778ft 488kts
09-Jan-18 18:11 40.572101 -116.878167 89 34801ft 482kts
09-Jan-18 18:12 40.580086 -116.703385 90 34792ft 482kts
09-Jan-18 18:13 40.588574 -116.528025 90 34788ft 481kts
09-Jan-18 18:14 40.597363 -116.351988 90 34776ft 482kts
09-Jan-18 18:15 40.606253 -116.177956 90 34777ft 481kts
09-Jan-18 18:16 40.615542 -116.003076 90 34769ft 481kts
09-Jan-18 18:17 40.625072 -115.827613 89 34787ft 480kts
09-Jan-18 18:18 40.634873 -115.651874 89 34777ft 482kts
09-Jan-18 18:19 40.644986 -115.476077 90 34788ft 482kts
09-Jan-18 18:20 40.655246 -115.301670 89 34776ft 481kts
09-Jan-18 18:21 40.665884 -115.125977 90 34776ft 483kts
09-Jan-18 18:22 40.676883 -114.947892 91 34777ft 492kts
09-Jan-18 18:23 40.684545 -114.768933 93 34787ft 489kts
09-Jan-18 18:24 40.691265 -114.589445 93 34791ft 490kts
09-Jan-18 18:25 40.698250 -114.410387 93 34794ft 489kts
09-Jan-18 18:26 40.705445 -114.233618 93 34827ft 490kts
09-Jan-18 18:27 40.712741 -114.059698 93 34828ft 489kts
09-Jan-18 18:28 40.720195 -113.889880 93 34049ft 443kts
09-Jan-18 18:29 40.726244 -113.731498 96 31951ft 423kts
09-Jan-18 18:30 40.725148 -113.579732 97 29866ft 410kts
09-Jan-18 18:31 40.724203 -113.428609 96 27818ft 416kts
09-Jan-18 18:32 40.723542 -113.278141 96 25764ft 418kts
09-Jan-18 18:33 40.723040 -113.126266 95 23694ft 409kts
09-Jan-18 18:34 40.722735 -112.979656 95 21698ft 395kts
09-Jan-18 18:35 40.722472 -112.836879 96 19757ft 383kts
09-Jan-18 18:36 40.721110 -112.699577 96 18122ft 370kts
09-Jan-18 18:37 40.719893 -112.565803 96 16246ft 360kts
09-Jan-18 18:38 40.716761 -112.436432 97 14487ft 348kts
09-Jan-18 18:39 40.713021 -112.313672 97 12811ft 338kts
09-Jan-18 18:40 40.713472 -112.192422 92 12016ft 334kts
09-Jan-18 18:41 40.769579 -112.100841 16 11654ft 355kts
09-Jan-18 18:42 40.859679 -112.104443 352 10050ft 317kts
09-Jan-18 18:43 40.946480 -112.115046 353 8242ft 303kts
09-Jan-18 18:44 41.027314 -112.124707 354 7021ft 284kts
09-Jan-18 18:45 41.095064 -112.092557 71 7045ft 276kts
09-Jan-18 18:46 41.073574 -112.017458 142 7038ft 228kts
09-Jan-18 18:47 41.013673 -112.001344 174 7021ft 223kts
09-Jan-18 18:48 40.951700 -111.993730 175 7020ft 223kts
09-Jan-18 18:49 40.895084 -111.987102 175 5929ft 171kts
09-Jan-18 18:50 40.851973 -111.982112 174 5120ft 152kts
09-Jan-18 18:51 40.810307 -111.977230 174 4299ft 142kts
09-Jan-18 18:52 40.791146 -111.975856 202 4223ft 18kts
09-Jan-18 18:53 40.790212 -111.976409 215 4223ft 6kts
09-Jan-18 18:54 40.789117 -111.978032 225 4223ft 0kts

Navigation Log

Ident Type
Flight plan parsing failed, navigation log unavailable